createdAt,value
2018-05-29T00:01:00.283Z,22.26
2018-05-29T00:02:10.574Z,22.2
2018-05-29T00:03:20.739Z,22.21
2018-05-29T00:04:31.449Z,22.18
2018-05-29T00:05:41.609Z,22.2
2018-05-29T00:06:51.729Z,22.12
2018-05-29T00:08:01.868Z,22.18
2018-05-29T00:09:12.013Z,22.18
2018-05-29T00:10:22.160Z,22.2
2018-05-29T00:11:32.051Z,22.11
2018-05-29T00:12:42.224Z,22.08
2018-05-29T00:13:52.119Z,22.08
2018-05-29T00:15:01.884Z,22.13
2018-05-29T00:16:11.774Z,22.13
2018-05-29T00:17:21.411Z,22.11
2018-05-29T00:18:31.548Z,22.08
2018-05-29T00:19:41.447Z,22.13
2018-05-29T00:20:51.381Z,22.02
2018-05-29T00:22:01.280Z,22.06
2018-05-29T00:23:11.401Z,22.01
2018-05-29T00:24:21.575Z,22.13
2018-05-29T00:25:31.734Z,22.08
2018-05-29T00:26:41.882Z,22.05
2018-05-29T00:27:52.043Z,22.03
2018-05-29T00:29:02.205Z,22.01
2018-05-29T00:30:12.407Z,21.98
2018-05-29T00:31:22.636Z,22.02
2018-05-29T00:32:32.385Z,21.98
2018-05-29T00:33:42.593Z,21.96
2018-05-29T00:34:52.534Z,21.97
2018-05-29T00:36:02.669Z,21.94
2018-05-29T00:37:12.819Z,21.98
2018-05-29T00:38:23.069Z,21.93
2018-05-29T00:39:33.312Z,21.97
2018-05-29T00:40:43.461Z,21.9
2018-05-29T00:41:53.608Z,21.9
2018-05-29T00:43:03.492Z,21.91
2018-05-29T00:44:13.879Z,21.9
2018-05-29T00:45:24.026Z,21.88
2018-05-29T00:46:34.209Z,21.87
2018-05-29T00:47:44.400Z,21.83
2018-05-29T00:48:54.311Z,21.9
2018-05-29T00:50:04.436Z,21.81
2018-05-29T00:51:14.302Z,21.79
2018-05-29T00:52:24.438Z,21.78
2018-05-29T00:53:34.642Z,21.75
2018-05-29T00:54:44.775Z,21.76
2018-05-29T00:55:54.933Z,21.69
2018-05-29T00:57:05.186Z,21.68
2018-05-29T00:58:15.098Z,21.69
2018-05-29T00:59:25.248Z,21.57
2018-05-29T01:00:35.398Z,21.6
2018-05-29T01:01:45.538Z,21.61
2018-05-29T01:02:55.679Z,21.56
2018-05-29T01:04:05.815Z,21.61
2018-05-29T01:05:15.962Z,21.6
2018-05-29T01:06:26.109Z,21.54
2018-05-29T01:07:36.264Z,21.57
2018-05-29T01:08:46.455Z,21.56
2018-05-29T01:09:56.654Z,21.53
2018-05-29T01:11:06.836Z,21.53
2018-05-29T01:12:16.986Z,21.48
2018-05-29T01:13:27.126Z,21.37
2018-05-29T01:14:37.302Z,21.34
2018-05-29T01:15:47.439Z,21.46
2018-05-29T01:16:58.586Z,21.45
2018-05-29T01:18:08.748Z,21.35
2018-05-29T01:19:18.968Z,21.3
2018-05-29T01:20:29.136Z,21.33
2018-05-29T01:21:39.340Z,21.37
2018-05-29T01:22:49.216Z,21.31
2018-05-29T01:23:59.356Z,21.31
2018-05-29T01:25:09.659Z,21.22
2018-05-29T01:26:19.803Z,21.31
2018-05-29T01:27:30.018Z,21.25
2018-05-29T01:28:39.912Z,21.19
2018-05-29T01:29:49.807Z,21.28
2018-05-29T01:30:59.955Z,21.31
2018-05-29T01:32:10.120Z,21.3
2018-05-29T01:33:20.256Z,21.25
2018-05-29T01:34:30.398Z,21.28
2018-05-29T01:35:40.552Z,21.28
2018-05-29T01:36:50.819Z,21.22
2018-05-29T01:38:00.709Z,21.31
2018-05-29T01:39:10.846Z,21.18
2018-05-29T01:40:20.976Z,21.27
2018-05-29T01:41:31.159Z,21.25
2018-05-29T01:42:41.359Z,21.25
2018-05-29T01:43:51.541Z,21.22
2018-05-29T01:45:01.431Z,21.25
2018-05-29T01:46:11.602Z,21.27
2018-05-29T01:47:21.769Z,21.18
2018-05-29T01:48:32.012Z,21.18
2018-05-29T01:49:42.279Z,21.22
2018-05-29T01:50:52.464Z,21.19
2018-05-29T01:52:02.634Z,21.13
2018-05-29T01:53:12.826Z,21.12
2018-05-29T01:54:22.939Z,21.22
2018-05-29T01:55:33.351Z,21.1
2018-05-29T01:56:43.511Z,21.08
2018-05-29T01:57:53.321Z,21.09
2018-05-29T01:59:03.482Z,21.09
2018-05-29T02:00:13.628Z,21.09
2018-05-29T02:01:23.516Z,21.12
2018-05-29T02:02:33.782Z,20.98
2018-05-29T02:03:43.989Z,21
2018-05-29T02:04:54.155Z,21
2018-05-29T02:06:04.365Z,20.96
2018-05-29T02:07:14.581Z,20.91
2018-05-29T02:08:24.811Z,20.9
2018-05-29T02:09:35.049Z,21.01
2018-05-29T02:10:44.929Z,20.83
2018-05-29T02:11:55.089Z,20.88
2018-05-29T02:13:05.235Z,20.94
2018-05-29T02:14:15.424Z,20.85
2018-05-29T02:15:25.323Z,20.91
2018-05-29T02:16:35.532Z,20.85
2018-05-29T02:17:45.699Z,20.88
2018-05-29T02:18:55.882Z,20.9
2018-05-29T02:20:05.772Z,20.9
2018-05-29T02:21:15.924Z,20.9
2018-05-29T02:22:26.081Z,20.94
2018-05-29T02:23:36.265Z,20.86
2018-05-29T02:24:46.405Z,20.9
2018-05-29T02:25:56.646Z,20.83
2018-05-29T02:27:06.841Z,20.9
2018-05-29T02:28:17.037Z,20.86
2018-05-29T02:29:27.326Z,20.86
2018-05-29T02:30:36.836Z,20.98
2018-05-29T02:31:46.972Z,20.85
2018-05-29T02:32:57.145Z,20.86
2018-05-29T02:34:07.291Z,20.82
2018-05-29T02:35:17.505Z,20.82
2018-05-29T02:36:27.655Z,20.83
2018-05-29T02:37:37.806Z,20.9
2018-05-29T02:38:47.942Z,20.78
2018-05-29T02:39:58.081Z,20.85
2018-05-29T02:41:07.892Z,20.79
2018-05-29T02:42:18.068Z,20.78
2018-05-29T02:43:28.224Z,20.79
2018-05-29T02:44:38.358Z,20.83
2018-05-29T02:45:48.494Z,20.81
2018-05-29T02:46:58.643Z,20.78
2018-05-29T02:48:08.529Z,20.82
2018-05-29T02:49:18.704Z,20.72
2018-05-29T02:50:28.951Z,20.71
2018-05-29T02:51:39.095Z,20.71
2018-05-29T02:52:49.297Z,20.64
2018-05-29T02:53:59.589Z,20.63
2018-05-29T02:55:10.851Z,20.6
2018-05-29T02:56:21.018Z,20.53
2018-05-29T02:57:31.324Z,20.6
2018-05-29T02:58:41.449Z,20.6
2018-05-29T02:59:51.656Z,20.57
2018-05-29T03:01:01.528Z,20.54
2018-05-29T03:02:11.689Z,20.53
2018-05-29T03:03:21.847Z,20.53
2018-05-29T03:04:32.032Z,20.61
2018-05-29T03:05:42.162Z,20.57
2018-05-29T03:06:52.287Z,20.57
2018-05-29T03:08:02.590Z,20.57
2018-05-29T03:09:12.833Z,20.56
2018-05-29T03:10:23.026Z,20.61
2018-05-29T03:11:32.905Z,20.58
2018-05-29T03:12:43.048Z,20.6
2018-05-29T03:13:53.340Z,20.54
2018-05-29T03:15:03.546Z,20.53
2018-05-29T03:16:13.464Z,20.51
2018-05-29T03:17:23.628Z,20.49
2018-05-29T03:18:33.773Z,20.56
2018-05-29T03:19:43.916Z,20.53
2018-05-29T03:20:54.155Z,20.45
2018-05-29T03:22:04.450Z,20.49
2018-05-29T03:23:14.583Z,20.54
2018-05-29T03:24:24.598Z,20.45
2018-05-29T03:25:34.378Z,20.48
2018-05-29T03:26:44.545Z,20.51
2018-05-29T03:27:54.748Z,20.49
2018-05-29T03:29:04.912Z,20.58
2018-05-29T03:30:15.074Z,20.57
2018-05-29T03:31:25.244Z,20.58
2018-05-29T03:32:35.067Z,20.56
2018-05-29T03:33:44.693Z,20.56
2018-05-29T03:34:54.865Z,20.57
2018-05-29T03:36:04.788Z,20.51
2018-05-29T03:37:14.690Z,20.53
2018-05-29T03:38:24.837Z,20.49
2018-05-29T03:39:34.975Z,20.53
2018-05-29T03:40:44.782Z,20.51
2018-05-29T03:41:54.681Z,20.48
2018-05-29T03:43:04.812Z,20.41
2018-05-29T03:44:14.954Z,20.53
2018-05-29T03:45:25.082Z,20.46
2018-05-29T03:46:35.237Z,20.43
2018-05-29T03:47:45.362Z,20.36
2018-05-29T03:48:55.646Z,20.34
2018-05-29T03:50:05.803Z,20.28
2018-05-29T03:51:16.048Z,20.36
2018-05-29T03:52:26.259Z,20.3
2018-05-29T03:53:36.395Z,20.27
2018-05-29T03:54:46.549Z,20.35
2018-05-29T03:55:56.673Z,20.24
2018-05-29T03:57:06.872Z,20.34
2018-05-29T03:58:17.022Z,20.23
2018-05-29T03:59:26.899Z,20.3
2018-05-29T04:00:37.040Z,20.34
2018-05-29T04:01:47.171Z,20.31
2018-05-29T04:02:57.078Z,20.28
2018-05-29T04:04:07.215Z,20.19
2018-05-29T04:05:17.274Z,20.3
2018-05-29T04:06:27.516Z,20.34
2018-05-29T04:07:37.769Z,20.28
2018-05-29T04:08:47.925Z,20.39
2018-05-29T04:09:58.233Z,20.43
2018-05-29T04:11:08.621Z,20.39
2018-05-29T04:12:18.790Z,20.43
2018-05-29T04:13:28.801Z,20.46
2018-05-29T04:14:39.047Z,20.46
2018-05-29T04:15:49.285Z,20.49
2018-05-29T04:16:59.777Z,20.49
2018-05-29T04:18:10.164Z,20.39
2018-05-29T04:19:20.306Z,20.43
2018-05-29T04:20:30.459Z,20.42
2018-05-29T04:21:40.599Z,20.45
2018-05-29T04:22:50.743Z,20.49
2018-05-29T04:24:00.929Z,20.43
2018-05-29T04:25:10.830Z,20.54
2018-05-29T04:26:20.998Z,20.53
2018-05-29T04:27:31.146Z,20.53
2018-05-29T04:28:42.296Z,20.54
2018-05-29T04:29:52.430Z,20.54
2018-05-29T04:31:02.304Z,20.53
2018-05-29T04:32:12.508Z,20.45
2018-05-29T04:33:22.722Z,20.54
2018-05-29T04:34:32.526Z,20.53
2018-05-29T04:35:42.676Z,20.57
2018-05-29T04:36:52.833Z,20.61
2018-05-29T04:38:02.988Z,20.63
2018-05-29T04:39:13.226Z,20.66
2018-05-29T04:40:23.397Z,20.75
2018-05-29T04:41:33.657Z,20.78
2018-05-29T04:42:43.842Z,20.76
2018-05-29T04:43:54.058Z,20.83
2018-05-29T04:45:04.262Z,20.83
2018-05-29T04:46:14.400Z,20.88
2018-05-29T04:47:24.545Z,20.85
2018-05-29T04:48:34.498Z,20.86
2018-05-29T04:49:44.893Z,20.88
2018-05-29T04:50:55.044Z,20.88
2018-05-29T04:52:05.236Z,20.83
2018-05-29T04:53:15.434Z,20.82
2018-05-29T04:54:25.852Z,20.83
2018-05-29T04:55:36.027Z,20.85
2018-05-29T04:56:46.218Z,21
2018-05-29T04:57:56.376Z,21.01
2018-05-29T04:59:06.615Z,20.97
2018-05-29T05:00:16.843Z,20.98
2018-05-29T05:01:27.049Z,21.01
2018-05-29T05:02:37.419Z,20.97
2018-05-29T05:03:47.380Z,21.03
2018-05-29T05:04:57.153Z,21.09
2018-05-29T05:06:07.360Z,21.13
2018-05-29T05:07:17.576Z,21.06
2018-05-29T05:08:27.747Z,21.01
2018-05-29T05:09:37.631Z,21.04
2018-05-29T05:10:47.816Z,21.04
2018-05-29T05:11:57.959Z,20.98
2018-05-29T05:13:08.297Z,21
2018-05-29T05:14:18.174Z,20.97
2018-05-29T05:15:28.298Z,20.86
2018-05-29T05:16:38.459Z,20.82
2018-05-29T05:17:48.635Z,20.85
2018-05-29T05:18:58.803Z,20.85
2018-05-29T05:20:09.048Z,20.83
2018-05-29T05:21:19.103Z,20.83
2018-05-29T05:22:29.239Z,20.91
2018-05-29T05:23:40.454Z,20.83
2018-05-29T05:24:50.603Z,20.83
2018-05-29T05:26:00.758Z,20.81
2018-05-29T05:27:10.691Z,20.85
2018-05-29T05:28:20.848Z,20.83
2018-05-29T05:29:31.001Z,20.86
2018-05-29T05:30:41.194Z,20.98
2018-05-29T05:31:51.318Z,20.96
2018-05-29T05:33:01.127Z,20.97
2018-05-29T05:34:11.287Z,21.09
2018-05-29T05:35:21.535Z,21.08
2018-05-29T05:36:31.856Z,21.09
2018-05-29T05:38:53.537Z,21.12
2018-05-29T05:40:03.467Z,21.16
2018-05-29T05:41:13.636Z,21.18
2018-05-29T05:42:23.872Z,21.25
2018-05-29T05:43:34.041Z,21.3
2018-05-29T05:44:44.240Z,21.27
2018-05-29T05:45:54.473Z,21.23
2018-05-29T05:47:04.416Z,21.25
2018-05-29T05:48:14.339Z,21.3
2018-05-29T05:49:24.554Z,21.25
2018-05-29T05:50:34.685Z,21.22
2018-05-29T05:51:44.593Z,21.22
2018-05-29T05:52:54.832Z,21.31
2018-05-29T05:54:05.060Z,21.35
2018-05-29T05:55:16.252Z,21.33
2018-05-29T05:56:26.399Z,21.43
2018-05-29T05:57:36.716Z,21.48
2018-05-29T05:58:46.899Z,21.46
2018-05-29T05:59:57.228Z,21.41
2018-05-29T06:01:07.413Z,21.56
2018-05-29T06:02:17.569Z,21.49
2018-05-29T06:03:27.743Z,21.57
2018-05-29T06:04:38.013Z,21.5
2018-05-29T06:05:48.212Z,21.6
2018-05-29T06:06:58.477Z,21.5
2018-05-29T06:08:08.701Z,21.58
2018-05-29T06:09:18.378Z,21.57
2018-05-29T06:10:28.562Z,21.6
2018-05-29T06:11:38.686Z,21.53
2018-05-29T06:12:48.568Z,21.58
2018-05-29T06:13:58.578Z,21.58
2018-05-29T06:15:08.538Z,21.56
2018-05-29T06:16:18.787Z,21.6
2018-05-29T06:17:29.105Z,21.64
2018-05-29T06:18:39.033Z,21.64
2018-05-29T06:19:49.158Z,21.71
2018-05-29T06:20:59.319Z,21.84
2018-05-29T06:22:09.490Z,21.83
2018-05-29T06:23:19.681Z,21.84
2018-05-29T06:24:30.067Z,21.91
2018-05-29T06:25:40.213Z,21.96
2018-05-29T06:26:50.344Z,22.06
2018-05-29T06:28:00.584Z,22.09
2018-05-29T06:29:10.759Z,22.2
2018-05-29T06:30:20.994Z,22.11
2018-05-29T06:31:31.232Z,22.13
2018-05-29T06:32:41.440Z,22.16
2018-05-29T06:33:51.725Z,22.26
2018-05-29T06:35:01.617Z,22.28
2018-05-29T06:36:11.825Z,22.28
2018-05-29T06:37:21.464Z,22.3
2018-05-29T06:38:31.687Z,22.28
2018-05-29T06:39:41.528Z,22.38
2018-05-29T06:40:51.672Z,22.48
2018-05-29T06:42:01.450Z,22.45
2018-05-29T06:43:11.608Z,22.48
2018-05-29T06:44:21.485Z,22.49
2018-05-29T06:45:31.911Z,22.55
2018-05-29T06:46:41.433Z,22.6
2018-05-29T06:47:51.586Z,22.61
2018-05-29T06:49:01.733Z,22.65
2018-05-29T06:50:11.888Z,22.64
2018-05-29T06:51:22.023Z,22.73
2018-05-29T06:52:32.231Z,22.79
2018-05-29T06:53:42.608Z,22.73
2018-05-29T06:54:52.758Z,22.75
2018-05-29T06:56:02.950Z,22.75
2018-05-29T06:57:12.210Z,22.9
2018-05-29T06:58:25.190Z,22.89
2018-05-29T06:59:35.342Z,22.85
2018-05-29T07:00:44.980Z,23.02
2018-05-29T07:01:55.110Z,23.01
2018-05-29T07:03:05.256Z,23.06
2018-05-29T07:04:16.446Z,23.14
2018-05-29T07:05:26.710Z,23.08
2018-05-29T07:06:36.943Z,23.2
2018-05-29T07:07:47.124Z,23.17
2018-05-29T07:08:57.299Z,23.16
2018-05-29T07:10:07.520Z,23.14
2018-05-29T07:11:17.852Z,23.16
2018-05-29T07:12:28.051Z,23.23
2018-05-29T07:13:38.210Z,23.17
2018-05-29T07:14:48.374Z,23.36
2018-05-29T07:15:58.613Z,23.35
2018-05-29T07:17:08.795Z,23.36
2018-05-29T07:18:19.174Z,23.43
2018-05-29T07:19:29.323Z,23.46
2018-05-29T07:20:39.551Z,23.46
2018-05-29T07:21:49.780Z,23.51
2018-05-29T07:22:59.991Z,23.53
2018-05-29T07:24:10.210Z,23.51
2018-05-29T07:25:20.351Z,23.61
2018-05-29T07:26:30.489Z,23.64
2018-05-29T07:27:40.619Z,23.75
2018-05-29T07:28:50.763Z,23.75
2018-05-29T07:30:00.961Z,23.72
2018-05-29T07:31:11.106Z,23.76
2018-05-29T07:32:21.279Z,23.79
2018-05-29T07:33:31.455Z,23.79
2018-05-29T07:34:41.372Z,23.91
2018-05-29T07:35:51.521Z,23.98
2018-05-29T07:37:01.658Z,23.95
2018-05-29T07:38:11.530Z,24.06
2018-05-29T07:39:21.693Z,24.01
2018-05-29T07:40:31.864Z,24.1
2018-05-29T07:41:42.060Z,24.19
2018-05-29T07:42:52.274Z,24.15
2018-05-29T07:44:02.197Z,24.27
2018-05-29T07:45:12.462Z,24.25
2018-05-29T07:46:22.941Z,24.28
2018-05-29T07:47:32.840Z,24.29
2018-05-29T07:48:42.997Z,24.44
2018-05-29T07:49:53.206Z,24.45
2018-05-29T07:51:03.132Z,24.5
2018-05-29T07:52:13.265Z,24.51
2018-05-29T07:53:23.471Z,24.51
2018-05-29T07:54:33.262Z,24.54
2018-05-29T07:55:43.490Z,24.62
2018-05-29T07:56:53.417Z,24.55
2018-05-29T07:58:03.641Z,24.6
2018-05-29T07:59:13.901Z,24.65
2018-05-29T08:00:23.567Z,24.7
2018-05-29T08:01:33.841Z,24.73
2018-05-29T08:02:43.990Z,24.75
2018-05-29T08:03:54.248Z,24.75
2018-05-29T08:05:04.148Z,24.82
2018-05-29T08:06:15.352Z,24.85
2018-05-29T08:07:25.597Z,24.99
2018-05-29T08:08:35.816Z,25.02
2018-05-29T08:09:45.972Z,25.03
2018-05-29T08:10:56.111Z,25.06
2018-05-29T08:12:05.883Z,25.15
2018-05-29T08:13:16.079Z,25.17
2018-05-29T08:14:26.044Z,25.21
2018-05-29T08:15:36.190Z,25.27
2018-05-29T08:16:46.347Z,25.29
2018-05-29T08:17:56.491Z,25.42
2018-05-29T08:19:06.708Z,25.52
2018-05-29T08:20:16.730Z,25.56
2018-05-29T08:21:26.865Z,25.64
2018-05-29T08:22:37.013Z,25.76
2018-05-29T08:23:47.160Z,25.92
2018-05-29T08:24:57.310Z,26.02
2018-05-29T08:26:07.557Z,26.03
2018-05-29T08:27:17.774Z,26.14
2018-05-29T08:28:28.026Z,26.22
2018-05-29T08:29:38.185Z,26.27
2018-05-29T08:30:48.413Z,26.34
2018-05-29T08:31:58.664Z,26.34
2018-05-29T08:33:08.900Z,26.39
2018-05-29T08:34:18.786Z,26.51
2018-05-29T08:35:28.975Z,26.59
2018-05-29T08:36:39.171Z,26.7
2018-05-29T08:37:49.437Z,26.77
2018-05-29T08:38:59.595Z,26.96
2018-05-29T08:40:09.783Z,26.93
2018-05-29T08:41:19.958Z,27.11
2018-05-29T08:42:30.174Z,27.3
2018-05-29T08:43:40.410Z,27.49
2018-05-29T08:44:50.570Z,27.7
2018-05-29T08:46:00.787Z,27.87
2018-05-29T08:47:12.286Z,28.09
2018-05-29T08:48:22.444Z,28.46
2018-05-29T08:49:32.626Z,28.98
2018-05-29T08:50:44.194Z,29.55
2018-05-29T08:51:54.172Z,30.03
2018-05-29T08:53:04.355Z,30.32
2018-05-29T08:54:14.500Z,30.61
2018-05-29T08:55:24.639Z,30.79
2018-05-29T08:56:34.903Z,31.07
2018-05-29T08:57:45.093Z,31.34
2018-05-29T08:58:55.334Z,31.6
2018-05-29T09:00:05.527Z,31.7
2018-05-29T09:01:15.730Z,31.84
2018-05-29T09:03:43.420Z,32.4
2018-05-29T09:04:54.813Z,32.53
2018-05-29T09:06:04.830Z,32.56
2018-05-29T09:07:15.017Z,32.63
2018-05-29T09:08:27.498Z,32.66
2018-05-29T09:09:39.078Z,32.81
2018-05-29T09:10:49.252Z,32.78
2018-05-29T09:11:59.490Z,32.8
2018-05-29T09:13:13.213Z,32.6
2018-05-29T09:14:25.790Z,32.65
2018-05-29T09:15:37.879Z,32.7
2018-05-29T09:16:48.130Z,32.65
2018-05-29T09:17:59.338Z,32.68
2018-05-29T09:19:09.607Z,32.68
2018-05-29T09:20:19.788Z,32.68
2018-05-29T09:21:30.016Z,32.65
2018-05-29T09:22:40.216Z,32.63
2018-05-29T09:23:50.100Z,32.62
2018-05-29T09:24:59.992Z,32.73
2018-05-29T09:26:10.414Z,32.65
2018-05-29T09:27:20.590Z,32.62
2018-05-29T09:28:30.760Z,32.56
2018-05-29T09:29:41.122Z,32.7
2018-05-29T09:30:51.695Z,32.85
2018-05-29T09:32:01.732Z,33.05
2018-05-29T09:33:12.193Z,33.26
2018-05-29T09:34:22.413Z,33.59
2018-05-29T09:35:32.729Z,33.86
2018-05-29T09:36:42.761Z,33.94
2018-05-29T09:37:52.927Z,33.95
2018-05-29T09:39:03.097Z,33.87
2018-05-29T09:40:13.279Z,33.94
2018-05-29T09:41:23.560Z,34.01
2018-05-29T09:42:34.102Z,34.24
2018-05-29T09:43:44.269Z,34.24
2018-05-29T09:44:54.544Z,34.2
2018-05-29T09:46:04.792Z,34.12
2018-05-29T09:47:14.434Z,34.06
2018-05-29T09:48:24.753Z,33.94
2018-05-29T09:49:34.925Z,33.98
2018-05-29T09:50:45.125Z,33.81
2018-05-29T09:51:55.341Z,33.81
2018-05-29T09:53:05.492Z,33.6
2018-05-29T09:54:15.708Z,33.5
2018-05-29T09:55:26.069Z,33.34
2018-05-29T09:56:36.220Z,33.39
2018-05-29T09:57:46.400Z,33.35
2018-05-29T09:58:56.635Z,33.54
2018-05-29T10:00:06.792Z,33.48
2018-05-29T10:01:17.161Z,33.41
2018-05-29T10:02:27.158Z,33.38
2018-05-29T10:03:37.347Z,33.37
2018-05-29T10:04:47.538Z,33.41
2018-05-29T10:05:57.731Z,33.37
2018-05-29T10:07:08.254Z,33.37
2018-05-29T10:08:18.504Z,33.45
2018-05-29T10:09:28.735Z,33.44
2018-05-29T10:10:38.893Z,33.47
2018-05-29T10:11:49.050Z,33.54
2018-05-29T10:12:59.298Z,33.64
2018-05-29T10:14:09.498Z,33.59
2018-05-29T10:15:19.651Z,33.61
2018-05-29T10:16:29.318Z,33.73
2018-05-29T10:17:39.532Z,33.68
2018-05-29T10:18:49.716Z,33.53
2018-05-29T10:19:59.879Z,33.48
2018-05-29T10:21:09.814Z,33.29
2018-05-29T10:22:20.059Z,33.01
2018-05-29T10:23:30.395Z,32.98
2018-05-29T10:24:40.227Z,32.98
2018-05-29T10:25:50.513Z,32.92
2018-05-29T10:27:00.673Z,33.01
2018-05-29T10:28:09.988Z,33.11
2018-05-29T10:29:20.173Z,33.13
2018-05-29T10:30:30.380Z,33.23
2018-05-29T10:31:40.617Z,33.26
2018-05-29T10:32:50.816Z,33.38
2018-05-29T10:34:00.799Z,33.35
2018-05-29T10:35:11.038Z,33.53
2018-05-29T10:36:21.245Z,33.57
2018-05-29T10:37:31.423Z,33.66
2018-05-29T10:38:41.741Z,33.83
2018-05-29T10:39:51.907Z,34
2018-05-29T10:41:01.997Z,34.05
2018-05-29T10:42:12.173Z,34.16
2018-05-29T10:43:22.121Z,34.22
2018-05-29T10:44:32.369Z,34.16
2018-05-29T10:45:42.540Z,34.01
2018-05-29T10:46:52.798Z,34
2018-05-29T10:48:02.983Z,33.91
2018-05-29T10:49:13.212Z,34.03
2018-05-29T10:50:23.465Z,34.16
2018-05-29T10:51:33.367Z,33.95
2018-05-29T10:52:43.561Z,33.88
2018-05-29T10:53:53.751Z,33.75
2018-05-29T10:55:03.936Z,33.63
2018-05-29T10:56:14.213Z,33.56
2018-05-29T10:57:24.135Z,33.54
2018-05-29T10:58:34.095Z,33.47
2018-05-29T10:59:44.273Z,33.64
2018-05-29T11:00:54.549Z,33.64
2018-05-29T11:02:04.369Z,33.76
2018-05-29T11:03:14.529Z,33.86
2018-05-29T11:04:24.715Z,33.88
2018-05-29T11:05:34.889Z,34.05
2018-05-29T11:06:45.073Z,34.1
2018-05-29T11:07:55.604Z,34.06
2018-05-29T11:09:06.036Z,34.13
2018-05-29T11:10:16.319Z,34.24
2018-05-29T11:11:26.172Z,34.31
2018-05-29T11:12:36.338Z,34.43
2018-05-29T11:13:46.544Z,34.2
2018-05-29T11:14:56.472Z,34.24
2018-05-29T11:16:06.746Z,34.09
2018-05-29T11:17:16.915Z,34.1
2018-05-29T11:18:27.120Z,33.82
2018-05-29T11:19:37.288Z,33.64
2018-05-29T11:20:47.464Z,33.48
2018-05-29T11:21:57.687Z,33.42
2018-05-29T11:23:07.848Z,33.39
2018-05-29T11:24:18.021Z,33.44
2018-05-29T11:25:28.196Z,33.41
2018-05-29T11:26:38.402Z,33.41
2018-05-29T11:27:48.577Z,33.35
2018-05-29T11:28:58.817Z,33.17
2018-05-29T11:30:09.037Z,33.23
2018-05-29T11:31:18.996Z,33.16
2018-05-29T11:32:29.217Z,33.29
2018-05-29T11:33:39.378Z,33.29
2018-05-29T11:34:49.542Z,33.38
2018-05-29T11:35:59.457Z,33.45
2018-05-29T11:37:09.632Z,33.45
2018-05-29T11:38:19.842Z,33.39
2018-05-29T11:39:29.995Z,33.44
2018-05-29T11:40:40.173Z,33.38
2018-05-29T11:41:50.339Z,33.47
2018-05-29T11:43:00.594Z,33.5
2018-05-29T11:44:10.803Z,33.54
2018-05-29T11:45:21.065Z,33.64
2018-05-29T11:46:31.046Z,33.72
2018-05-29T11:47:41.265Z,33.79
2018-05-29T11:48:51.478Z,33.64
2018-05-29T11:50:01.727Z,33.69
2018-05-29T11:51:11.697Z,33.78
2018-05-29T11:52:21.935Z,33.73
2018-05-29T11:53:32.125Z,33.86
2018-05-29T11:54:42.317Z,33.88
2018-05-29T11:55:52.575Z,33.88
2018-05-29T11:57:02.764Z,33.95
2018-05-29T11:58:13.027Z,33.9
2018-05-29T11:59:23.212Z,33.98
2018-05-29T12:00:33.461Z,33.91
2018-05-29T12:01:43.977Z,33.79
2018-05-29T12:02:54.375Z,33.82
2018-05-29T12:04:04.561Z,33.78
2018-05-29T12:05:14.788Z,33.86
2018-05-29T12:06:25.074Z,33.88
2018-05-29T12:07:35.347Z,33.93
2018-05-29T12:08:45.684Z,33.91
2018-05-29T12:09:55.886Z,33.73
2018-05-29T12:11:06.093Z,33.56
2018-05-29T12:12:16.301Z,33.41
2018-05-29T12:13:26.501Z,33.34
2018-05-29T12:14:36.679Z,33.25
2018-05-29T12:15:46.870Z,33.19
2018-05-29T12:16:57.195Z,33.05
2018-05-29T12:18:07.741Z,32.89
2018-05-29T12:19:17.978Z,32.65
2018-05-29T12:20:28.203Z,32.63
2018-05-29T12:21:38.389Z,32.4
2018-05-29T12:22:48.336Z,32.41
2018-05-29T12:23:58.493Z,32.44
2018-05-29T12:25:08.657Z,32.35
2018-05-29T12:26:18.837Z,32.33
2018-05-29T12:27:28.753Z,32.32
2018-05-29T12:28:38.667Z,32.31
2018-05-29T12:29:48.862Z,32.25
2018-05-29T12:30:58.769Z,32.35
2018-05-29T12:32:09.033Z,32.4
2018-05-29T12:33:19.202Z,32.48
2018-05-29T12:34:29.441Z,32.59
2018-05-29T12:35:39.390Z,32.6
2018-05-29T12:36:49.298Z,32.59
2018-05-29T12:37:59.462Z,32.65
2018-05-29T12:39:09.641Z,32.58
2018-05-29T12:40:19.918Z,32.48
2018-05-29T12:41:30.369Z,32.44
2018-05-29T12:42:40.545Z,32.25
2018-05-29T12:43:50.730Z,32.17
2018-05-29T12:45:00.807Z,31.95
2018-05-29T12:46:11.159Z,31.79
2018-05-29T12:47:21.216Z,31.63
2018-05-29T12:48:31.461Z,31.61
2018-05-29T12:49:41.708Z,31.57
2018-05-29T12:50:51.972Z,31.44
2018-05-29T12:52:01.642Z,31.35
2018-05-29T12:53:11.916Z,31.32
2018-05-29T12:54:22.177Z,31.28
2018-05-29T12:55:32.351Z,31.27
2018-05-29T12:56:42.598Z,31.2
2018-05-29T12:57:52.779Z,31.23
2018-05-29T12:59:03.036Z,31.07
2018-05-29T13:00:13.376Z,31.1
2018-05-29T13:01:23.593Z,31.12
2018-05-29T13:02:33.803Z,31
2018-05-29T13:03:43.968Z,31.07
2018-05-29T13:04:54.209Z,31.13
2018-05-29T13:06:04.389Z,31.1
2018-05-29T13:07:14.593Z,31.09
2018-05-29T13:08:24.806Z,31.1
2018-05-29T13:09:34.469Z,31.01
2018-05-29T13:10:44.376Z,31.07
2018-05-29T13:11:54.553Z,31.07
2018-05-29T13:13:04.780Z,31.12
2018-05-29T13:14:14.975Z,31.12
2018-05-29T13:15:25.201Z,31.16
2018-05-29T13:16:35.550Z,31.1
2018-05-29T13:17:46.041Z,31.09
2018-05-29T13:18:56.364Z,31.07
2018-05-29T13:20:06.606Z,31.13
2018-05-29T13:21:16.801Z,31.1
2018-05-29T13:22:26.996Z,31.01
2018-05-29T13:23:37.321Z,31.07
2018-05-29T13:24:47.532Z,31.05
2018-05-29T13:25:57.695Z,31
2018-05-29T13:27:08.026Z,31.04
2018-05-29T13:28:18.307Z,31.01
2018-05-29T13:29:28.512Z,31.01
2018-05-29T13:30:38.728Z,31.13
2018-05-29T13:31:48.976Z,31.16
2018-05-29T13:32:59.170Z,31.19
2018-05-29T13:34:08.998Z,31.27
2018-05-29T13:35:19.321Z,31.32
2018-05-29T13:36:29.649Z,31.41
2018-05-29T13:37:39.965Z,31.4
2018-05-29T13:38:50.157Z,31.44
2018-05-29T13:40:00.377Z,31.46
2018-05-29T13:41:10.218Z,31.44
2018-05-29T13:42:20.442Z,31.41
2018-05-29T13:43:30.607Z,31.47
2018-05-29T13:44:40.810Z,31.53
2018-05-29T13:45:51.016Z,31.47
2018-05-29T13:47:01.298Z,31.44
2018-05-29T13:48:11.486Z,31.38
2018-05-29T13:49:21.726Z,31.34
2018-05-29T13:50:31.921Z,31.5
2018-05-29T13:51:42.112Z,31.5
2018-05-29T13:52:51.934Z,31.38
2018-05-29T13:54:01.846Z,31.34
2018-05-29T13:55:12.043Z,31.31
2018-05-29T13:56:22.240Z,31.38
2018-05-29T13:57:32.790Z,31.32
2018-05-29T13:58:42.979Z,31.22
2018-05-29T13:59:53.164Z,31.04
2018-05-29T14:01:03.357Z,31.09
2018-05-29T14:02:14.486Z,31.1
2018-05-29T14:03:24.877Z,31.07
2018-05-29T14:04:35.169Z,31.07
2018-05-29T14:05:45.337Z,31.2
2018-05-29T14:06:55.536Z,31.16
2018-05-29T14:08:05.092Z,31.03
2018-05-29T14:09:15.394Z,31.1
2018-05-29T14:10:25.584Z,31.04
2018-05-29T14:11:36.773Z,31.13
2018-05-29T14:12:47.058Z,31.05
2018-05-29T14:13:57.271Z,31.12
2018-05-29T14:15:07.442Z,31.13
2018-05-29T14:16:17.362Z,31.13
2018-05-29T14:17:28.541Z,31.16
2018-05-29T14:18:38.787Z,31.2
2018-05-29T14:19:49.015Z,31.22
2018-05-29T14:20:59.187Z,31.15
2018-05-29T14:22:09.459Z,31.18
2018-05-29T14:23:19.666Z,31.28
2018-05-29T14:24:29.843Z,31.19
2018-05-29T14:25:41.014Z,31.23
2018-05-29T14:26:51.282Z,31.19
2018-05-29T14:28:01.462Z,31.18
2018-05-29T14:29:11.664Z,31.07
2018-05-29T14:30:21.829Z,31.13
2018-05-29T14:31:31.790Z,31.1
2018-05-29T14:32:41.971Z,31.07
2018-05-29T14:33:52.187Z,31.09
2018-05-29T14:35:02.387Z,31.09
2018-05-29T14:36:12.598Z,31.09
2018-05-29T14:37:22.793Z,31.04
2018-05-29T14:38:33.138Z,31.2
2018-05-29T14:39:43.356Z,31.07
2018-05-29T14:40:53.272Z,31.07
2018-05-29T14:42:03.511Z,31.12
2018-05-29T14:43:13.719Z,31.05
2018-05-29T14:44:23.984Z,31.13
2018-05-29T14:45:34.168Z,31.19
2018-05-29T14:46:44.069Z,31.15
2018-05-29T14:47:54.273Z,31.07
2018-05-29T14:49:04.468Z,31.12
2018-05-29T14:50:14.673Z,31.12
2018-05-29T14:51:24.930Z,31.07
2018-05-29T14:52:35.143Z,31.03
2018-05-29T14:53:45.351Z,30.96
2018-05-29T14:54:55.575Z,30.83
2018-05-29T14:56:05.764Z,30.75
2018-05-29T14:57:15.944Z,30.63
2018-05-29T14:58:26.243Z,30.72
2018-05-29T14:59:36.475Z,30.72
2018-05-29T15:00:46.697Z,30.67
2018-05-29T15:01:56.974Z,30.76
2018-05-29T15:03:07.164Z,30.66
2018-05-29T15:04:17.340Z,30.66
2018-05-29T15:05:27.004Z,30.66
2018-05-29T15:06:37.244Z,30.57
2018-05-29T15:07:47.167Z,30.54
2018-05-29T15:08:56.842Z,30.48
2018-05-29T15:10:07.116Z,30.38